Lyster, Canada
Current Conditions -  °F | °C
As of 4:00 AM on Sunday 26 Oct 2014 (Local Time) from CYQB Reporting Station
Overcast Overcast  
Wind Chill: 43°   Ceiling: 1500
Heat Index: 43°   Visibility: 15mi
Dew Point: 41°   Wind: 3mph
Humidity: 93%   Direction: 60°ENE
Pressure: 29.36"   Gusts: NA
Location:  46.37°N, 71.62°W
Report Text: CYQB 260800Z 06003KT 15SM FEW010 OVC015 06/05 A2936 RMK ST2SC6 SLP944
Loading
Personal Weather Stations






























Interactive Weather Map New forecast layout! Learn more

10-Day Weather Forecast

Advertisements
Track Severe Weather on mobile